sensor_id;sensor_type;location;lat;lon;timestamp;P1;durP1;ratioP1;P2;durP2;ratioP2
27422;SDS011;14878;50.778;0.258;2022-08-01T00:01:01;26.20;;;4.63;;
27422;SDS011;14878;50.778;0.258;2022-08-01T00:02:02;22.67;;;5.07;;
27422;SDS011;14878;50.778;0.258;2022-08-01T00:03:03;16.03;;;4.40;;
27422;SDS011;14878;50.778;0.258;2022-08-01T00:04:04;17.67;;;4.05;;
27422;SDS011;14878;50.778;0.258;2022-08-01T00:05:05;15.30;;;4.30;;
27422;SDS011;14878;50.778;0.258;2022-08-01T00:06:07;21.48;;;4.85;;
27422;SDS011;14878;50.778;0.258;2022-08-01T00:07:08;21.92;;;4.45;;
27422;SDS011;14878;50.778;0.258;2022-08-01T00:08:09;22.20;;;5.03;;
27422;SDS011;14878;50.778;0.258;2022-08-01T00:09:09;18.25;;;4.80;;
27422;SDS011;14878;50.778;0.258;2022-08-01T00:10:11;16.65;;;3.97;;
27422;SDS011;14878;50.778;0.258;2022-08-01T00:11:16;15.20;;;4.28;;
27422;SDS011;14878;50.778;0.258;2022-08-01T00:12:16;20.35;;;4.90;;
27422;SDS011;14878;50.778;0.258;2022-08-01T00:13:17;19.50;;;4.68;;
27422;SDS011;14878;50.778;0.258;2022-08-01T00:14:18;16.97;;;3.50;;
27422;SDS011;14878;50.778;0.258;2022-08-01T00:15:19;19.10;;;5.22;;
27422;SDS011;14878;50.778;0.258;2022-08-01T00:16:19;20.33;;;4.70;;
27422;SDS011;14878;50.778;0.258;2022-08-01T00:17:22;18.48;;;4.63;;
27422;SDS011;14878;50.778;0.258;2022-08-01T00:18:23;18.23;;;4.03;;
27422;SDS011;14878;50.778;0.258;2022-08-01T00:19:24;21.67;;;4.73;;
27422;SDS011;14878;50.778;0.258;2022-08-01T00:20:24;19.08;;;4.68;;
27422;SDS011;14878;50.778;0.258;2022-08-01T00:21:25;16.05;;;4.28;;
27422;SDS011;14878;50.778;0.258;2022-08-01T00:22:26;15.47;;;4.10;;
27422;SDS011;14878;50.778;0.258;2022-08-01T00:23:26;21.00;;;4.70;;
27422;SDS011;14878;50.778;0.258;2022-08-01T00:24:27;20.70;;;4.85;;
27422;SDS011;14878;50.778;0.258;2022-08-01T00:25:28;15.65;;;4.03;;
27422;SDS011;14878;50.778;0.258;2022-08-01T00:26:28;22.15;;;5.57;;
27422;SDS011;14878;50.778;0.258;2022-08-01T00:27:29;17.93;;;4.20;;
27422;SDS011;14878;50.778;0.258;2022-08-01T00:28:30;15.30;;;4.25;;
27422;SDS011;14878;50.778;0.258;2022-08-01T00:29:31;23.65;;;4.50;;
27422;SDS011;14878;50.778;0.258;2022-08-01T00:30:31;15.63;;;4.33;;
27422;SDS011;14878;50.778;0.258;2022-08-01T00:31:32;18.77;;;4.00;;
27422;SDS011;14878;50.778;0.258;2022-08-01T00:32:33;19.57;;;4.03;;
27422;SDS011;14878;50.778;0.258;2022-08-01T00:33:36;15.90;;;3.95;;
27422;SDS011;14878;50.778;0.258;2022-08-01T00:34:37;20.23;;;3.93;;
27422;SDS011;14878;50.778;0.258;2022-08-01T00:35:37;17.98;;;4.20;;
27422;SDS011;14878;50.778;0.258;2022-08-01T00:36:38;12.32;;;4.18;;
27422;SDS011;14878;50.778;0.258;2022-08-01T00:37:39;21.37;;;4.30;;
27422;SDS011;14878;50.778;0.258;2022-08-01T00:38:40;19.05;;;4.55;;
27422;SDS011;14878;50.778;0.258;2022-08-01T00:39:43;16.67;;;4.47;;
27422;SDS011;14878;50.778;0.258;2022-08-01T00:40:44;19.35;;;4.18;;
27422;SDS011;14878;50.778;0.258;2022-08-01T00:41:45;15.90;;;4.23;;
27422;SDS011;14878;50.778;0.258;2022-08-01T00:42:45;16.17;;;3.63;;
27422;SDS011;14878;50.778;0.258;2022-08-01T00:43:46;21.10;;;4.68;;
27422;SDS011;14878;50.778;0.258;2022-08-01T00:44:47;13.90;;;4.33;;
27422;SDS011;14878;50.778;0.258;2022-08-01T00:45:48;15.27;;;3.80;;
27422;SDS011;14878;50.778;0.258;2022-08-01T00:46:48;17.90;;;4.55;;
27422;SDS011;14878;50.778;0.258;2022-08-01T00:47:49;15.93;;;4.43;;
27422;SDS011;14878;50.778;0.258;2022-08-01T00:48:50;19.23;;;4.57;;
27422;SDS011;14878;50.778;0.258;2022-08-01T00:49:50;16.13;;;4.30;;
27422;SDS011;14878;50.778;0.258;2022-08-01T00:50:51;13.90;;;4.30;;
27422;SDS011;14878;50.778;0.258;2022-08-01T00:51:52;12.63;;;4.50;;
27422;SDS011;14878;50.778;0.258;2022-08-01T00:52:53;14.60;;;3.70;;
27422;SDS011;14878;50.778;0.258;2022-08-01T00:53:54;13.17;;;4.40;;
27422;SDS011;14878;50.778;0.258;2022-08-01T00:54:55;16.40;;;3.95;;
27422;SDS011;14878;50.778;0.258;2022-08-01T00:55:56;18.38;;;4.35;;
27422;SDS011;14878;50.778;0.258;2022-08-01T00:56:57;14.37;;;4.27;;
27422;SDS011;14878;50.778;0.258;2022-08-01T00:57:58;18.52;;;4.25;;
27422;SDS011;14878;50.778;0.258;2022-08-01T00:58:59;18.40;;;4.03;;
27422;SDS011;14878;50.778;0.258;2022-08-01T01:00:00;21.15;;;5.13;;
27422;SDS011;14878;50.778;0.258;2022-08-01T01:01:01;19.48;;;3.97;;
27422;SDS011;14878;50.778;0.258;2022-08-01T01:02:01;15.77;;;4.28;;
27422;SDS011;14878;50.778;0.258;2022-08-01T01:03:02;17.63;;;4.50;;
27422;SDS011;14878;50.778;0.258;2022-08-01T01:04:03;19.52;;;4.32;;
27422;SDS011;14878;50.778;0.258;2022-08-01T01:05:04;11.68;;;3.60;;
27422;SDS011;14878;50.778;0.258;2022-08-01T01:06:10;16.65;;;3.90;;
27422;SDS011;14878;50.778;0.258;2022-08-01T01:08:21;21.45;;;4.25;;
27422;SDS011;14878;50.778;0.258;2022-08-01T01:11:00;12.52;;;3.92;;
27422;SDS011;14878;50.778;0.258;2022-08-01T01:12:22;14.82;;;4.13;;
27422;SDS011;14878;50.778;0.258;2022-08-01T01:13:34;16.65;;;4.10;;
27422;SDS011;14878;50.778;0.258;2022-08-01T01:14:51;23.07;;;4.47;;
27422;SDS011;14878;50.778;0.258;2022-08-01T01:16:05;13.38;;;4.18;;
27422;SDS011;14878;50.778;0.258;2022-08-01T01:17:10;16.10;;;4.32;;
27422;SDS011;14878;50.778;0.258;2022-08-01T01:18:17;15.50;;;4.10;;
27422;SDS011;14878;50.778;0.258;2022-08-01T01:19:27;12.43;;;4.13;;
27422;SDS011;14878;50.778;0.258;2022-08-01T01:20:44;14.90;;;4.18;;
27422;SDS011;14878;50.778;0.258;2022-08-01T01:28:40;16.38;;;4.07;;
27422;SDS011;14878;50.778;0.258;2022-08-01T01:29:59;12.82;;;3.95;;
27422;SDS011;14878;50.778;0.258;2022-08-01T01:31:02;17.55;;;4.28;;
27422;SDS011;14878;50.778;0.258;2022-08-01T01:32:09;19.40;;;4.38;;
27422;SDS011;14878;50.778;0.258;2022-08-01T01:33:27;13.95;;;3.90;;
27422;SDS011;14878;50.778;0.258;2022-08-01T01:34:33;14.10;;;3.90;;
27422;SDS011;14878;50.778;0.258;2022-08-01T01:35:38;16.40;;;4.47;;
27422;SDS011;14878;50.778;0.258;2022-08-01T01:36:45;17.88;;;4.35;;
27422;SDS011;14878;50.778;0.258;2022-08-01T01:37:48;13.18;;;4.22;;
27422;SDS011;14878;50.778;0.258;2022-08-01T01:38:53;14.63;;;4.30;;
27422;SDS011;14878;50.778;0.258;2022-08-01T01:39:56;19.92;;;4.88;;
27422;SDS011;14878;50.778;0.258;2022-08-01T01:40:58;17.70;;;4.20;;
27422;SDS011;14878;50.778;0.258;2022-08-01T01:42:03;15.25;;;3.90;;
27422;SDS011;14878;50.778;0.258;2022-08-01T01:43:06;19.67;;;4.67;;
27422;SDS011;14878;50.778;0.258;2022-08-01T01:44:11;22.08;;;4.60;;
27422;SDS011;14878;50.778;0.258;2022-08-01T01:45:15;14.13;;;4.03;;
27422;SDS011;14878;50.778;0.258;2022-08-01T01:46:17;17.95;;;4.30;;
27422;SDS011;14878;50.778;0.258;2022-08-01T01:47:22;15.05;;;4.90;;
27422;SDS011;14878;50.778;0.258;2022-08-01T01:48:24;21.40;;;4.80;;
27422;SDS011;14878;50.778;0.258;2022-08-01T01:49:28;13.10;;;4.30;;
27422;SDS011;14878;50.778;0.258;2022-08-01T01:50:30;18.85;;;4.63;;
27422;SDS011;14878;50.778;0.258;2022-08-01T01:51:32;14.15;;;4.30;;
27422;SDS011;14878;50.778;0.258;2022-08-01T01:52:33;19.40;;;4.40;;
27422;SDS011;14878;50.778;0.258;2022-08-01T01:53:35;14.20;;;4.43;;
27422;SDS011;14878;50.778;0.258;2022-08-01T01:54:39;14.00;;;4.45;;
27422;SDS011;14878;50.778;0.258;2022-08-01T01:55:43;16.83;;;4.28;;
27422;SDS011;14878;50.778;0.258;2022-08-01T01:56:46;15.60;;;4.10;;
27422;SDS011;14878;50.778;0.258;2022-08-01T01:57:51;18.67;;;4.90;;
27422;SDS011;14878;50.778;0.258;2022-08-01T01:58:54;16.25;;;4.85;;
27422;SDS011;14878;50.778;0.258;2022-08-01T01:59:57;13.18;;;5.10;;
27422;SDS011;14878;50.778;0.258;2022-08-01T02:01:00;17.73;;;4.97;;
27422;SDS011;14878;50.778;0.258;2022-08-01T02:02:02;12.38;;;5.30;;
27422;SDS011;14878;50.778;0.258;2022-08-01T02:03:06;11.43;;;5.00;;
27422;SDS011;14878;50.778;0.258;2022-08-01T02:04:09;10.80;;;4.63;;
27422;SDS011;14878;50.778;0.258;2022-08-01T02:05:11;16.77;;;5.30;;
27422;SDS011;14878;50.778;0.258;2022-08-01T02:06:13;9.65;;;4.65;;
27422;SDS011;14878;50.778;0.258;2022-08-01T02:07:19;13.27;;;5.30;;
27422;SDS011;14878;50.778;0.258;2022-08-01T02:08:22;15.20;;;6.00;;
27422;SDS011;14878;50.778;0.258;2022-08-01T02:09:24;17.02;;;6.43;;
27422;SDS011;14878;50.778;0.258;2022-08-01T02:10:28;13.93;;;5.68;;
27422;SDS011;14878;50.778;0.258;2022-08-01T02:11:31;14.65;;;6.07;;
27422;SDS011;14878;50.778;0.258;2022-08-01T02:12:34;13.93;;;5.78;;
27422;SDS011;14878;50.778;0.258;2022-08-01T02:13:37;12.55;;;5.15;;
27422;SDS011;14878;50.778;0.258;2022-08-01T02:14:42;16.33;;;6.43;;
27422;SDS011;14878;50.778;0.258;2022-08-01T02:15:45;12.82;;;5.68;;
27422;SDS011;14878;50.778;0.258;2022-08-01T02:16:49;15.45;;;5.57;;
27422;SDS011;14878;50.778;0.258;2022-08-01T02:17:51;16.33;;;7.40;;
27422;SDS011;14878;50.778;0.258;2022-08-01T02:18:56;14.43;;;7.63;;
27422;SDS011;14878;50.778;0.258;2022-08-01T02:19:57;19.73;;;8.30;;
27422;SDS011;14878;50.778;0.258;2022-08-01T02:20:59;11.57;;;7.25;;
27422;SDS011;14878;50.778;0.258;2022-08-01T02:22:49;13.35;;;7.70;;
27422;SDS011;14878;50.778;0.258;2022-08-01T02:23:28;13.50;;;8.25;;
27422;SDS011;14878;50.778;0.258;2022-08-01T02:25:49;16.85;;;9.23;;
27422;SDS011;14878;50.778;0.258;2022-08-01T02:26:53;16.05;;;9.60;;
27422;SDS011;14878;50.778;0.258;2022-08-01T02:29:06;16.90;;;10.65;;
27422;SDS011;14878;50.778;0.258;2022-08-01T02:30:10;19.98;;;11.32;;
27422;SDS011;14878;50.778;0.258;2022-08-01T02:31:14;20.00;;;12.38;;
27422;SDS011;14878;50.778;0.258;2022-08-01T02:33:58;20.67;;;13.73;;
27422;SDS011;14878;50.778;0.258;2022-08-01T02:35:03;22.17;;;13.75;;
27422;SDS011;14878;50.778;0.258;2022-08-01T02:36:07;21.73;;;13.88;;
27422;SDS011;14878;50.778;0.258;2022-08-01T02:37:08;20.88;;;14.30;;
27422;SDS011;14878;50.778;0.258;2022-08-01T02:38:10;21.70;;;14.27;;
27422;SDS011;14878;50.778;0.258;2022-08-01T02:39:14;18.05;;;13.80;;
27422;SDS011;14878;50.778;0.258;2022-08-01T02:40:17;21.00;;;14.63;;
27422;SDS011;14878;50.778;0.258;2022-08-01T02:41:20;20.15;;;14.13;;
27422;SDS011;14878;50.778;0.258;2022-08-01T02:42:23;23.00;;;15.45;;
27422;SDS011;14878;50.778;0.258;2022-08-01T02:43:26;19.83;;;14.55;;
27422;SDS011;14878;50.778;0.258;2022-08-01T02:44:31;22.77;;;15.48;;
27422;SDS011;14878;50.778;0.258;2022-08-01T02:45:35;22.10;;;14.55;;
27422;SDS011;14878;50.778;0.258;2022-08-01T02:46:52;22.13;;;16.15;;
27422;SDS011;14878;50.778;0.258;2022-08-01T02:47:58;24.27;;;15.38;;
27422;SDS011;14878;50.778;0.258;2022-08-01T02:49:06;21.77;;;14.15;;
27422;SDS011;14878;50.778;0.258;2022-08-01T02:50:09;22.63;;;15.20;;
27422;SDS011;14878;50.778;0.258;2022-08-01T02:51:12;21.83;;;15.48;;
27422;SDS011;14878;50.778;0.258;2022-08-01T02:52:16;20.02;;;13.73;;
27422;SDS011;14878;50.778;0.258;2022-08-01T02:53:20;21.45;;;15.23;;
27422;SDS011;14878;50.778;0.258;2022-08-01T02:54:24;21.52;;;14.45;;
27422;SDS011;14878;50.778;0.258;2022-08-01T02:55:25;24.25;;;15.20;;
27422;SDS011;14878;50.778;0.258;2022-08-01T02:56:29;20.20;;;15.05;;
27422;SDS011;14878;50.778;0.258;2022-08-01T02:57:37;21.95;;;15.18;;
27422;SDS011;14878;50.778;0.258;2022-08-01T02:58:39;24.02;;;16.02;;
27422;SDS011;14878;50.778;0.258;2022-08-01T02:59:43;25.30;;;15.40;;
27422;SDS011;14878;50.778;0.258;2022-08-01T03:00:45;23.67;;;15.70;;
27422;SDS011;14878;50.778;0.258;2022-08-01T03:01:47;22.13;;;14.85;;
27422;SDS011;14878;50.778;0.258;2022-08-01T03:02:48;23.33;;;15.02;;
27422;SDS011;14878;50.778;0.258;2022-08-01T03:03:55;21.60;;;15.25;;
27422;SDS011;14878;50.778;0.258;2022-08-01T03:04:55;23.90;;;15.38;;
27422;SDS011;14878;50.778;0.258;2022-08-01T03:05:58;21.73;;;15.17;;
27422;SDS011;14878;50.778;0.258;2022-08-01T03:07:02;21.70;;;15.40;;
27422;SDS011;14878;50.778;0.258;2022-08-01T03:08:04;22.25;;;15.32;;
27422;SDS011;14878;50.778;0.258;2022-08-01T03:09:07;23.27;;;15.80;;
27422;SDS011;14878;50.778;0.258;2022-08-01T03:10:10;28.13;;;16.75;;
27422;SDS011;14878;50.778;0.258;2022-08-01T03:11:11;24.83;;;17.02;;
27422;SDS011;14878;50.778;0.258;2022-08-01T03:12:17;22.58;;;16.17;;
27422;SDS011;14878;50.778;0.258;2022-08-01T03:13:20;27.23;;;17.17;;
27422;SDS011;14878;50.778;0.258;2022-08-01T03:14:23;27.98;;;16.88;;
27422;SDS011;14878;50.778;0.258;2022-08-01T03:15:25;23.85;;;17.00;;
27422;SDS011;14878;50.778;0.258;2022-08-01T03:16:29;23.88;;;16.65;;
27422;SDS011;14878;50.778;0.258;2022-08-01T03:17:32;25.60;;;17.40;;
27422;SDS011;14878;50.778;0.258;2022-08-01T03:18:34;27.25;;;17.25;;
27422;SDS011;14878;50.778;0.258;2022-08-01T03:19:37;24.98;;;17.27;;
27422;SDS011;14878;50.778;0.258;2022-08-01T03:20:39;27.50;;;17.50;;
27422;SDS011;14878;50.778;0.258;2022-08-01T03:21:41;27.80;;;17.13;;
27422;SDS011;14878;50.778;0.258;2022-08-01T03:22:44;24.75;;;17.35;;
27422;SDS011;14878;50.778;0.258;2022-08-01T03:23:47;25.15;;;18.75;;
27422;SDS011;14878;50.778;0.258;2022-08-01T03:24:51;30.85;;;17.85;;
27422;SDS011;14878;50.778;0.258;2022-08-01T03:25:53;28.65;;;16.83;;
27422;SDS011;14878;50.778;0.258;2022-08-01T03:26:55;27.58;;;17.42;;
27422;SDS011;14878;50.778;0.258;2022-08-01T03:27:58;24.43;;;17.57;;
27422;SDS011;14878;50.778;0.258;2022-08-01T03:29:10;30.13;;;17.85;;
27422;SDS011;14878;50.778;0.258;2022-08-01T03:30:15;26.08;;;17.30;;
27422;SDS011;14878;50.778;0.258;2022-08-01T03:31:16;26.48;;;17.20;;
27422;SDS011;14878;50.778;0.258;2022-08-01T03:32:18;23.65;;;16.35;;
27422;SDS011;14878;50.778;0.258;2022-08-01T03:33:20;26.30;;;17.30;;
27422;SDS011;14878;50.778;0.258;2022-08-01T03:34:21;24.27;;;16.30;;
27422;SDS011;14878;50.778;0.258;2022-08-01T03:35:23;23.67;;;17.75;;
27422;SDS011;14878;50.778;0.258;2022-08-01T03:36:29;23.27;;;16.42;;
27422;SDS011;14878;50.778;0.258;2022-08-01T03:37:38;22.95;;;16.13;;
27422;SDS011;14878;50.778;0.258;2022-08-01T03:38:44;22.20;;;13.98;;
27422;SDS011;14878;50.778;0.258;2022-08-01T03:40:02;19.40;;;12.73;;
27422;SDS011;14878;50.778;0.258;2022-08-01T03:41:13;19.70;;;12.88;;
27422;SDS011;14878;50.778;0.258;2022-08-01T03:42:18;22.10;;;13.07;;
27422;SDS011;14878;50.778;0.258;2022-08-01T03:43:30;21.45;;;13.02;;
27422;SDS011;14878;50.778;0.258;2022-08-01T03:44:36;18.90;;;12.35;;
27422;SDS011;14878;50.778;0.258;2022-08-01T03:45:40;20.77;;;13.27;;
27422;SDS011;14878;50.778;0.258;2022-08-01T03:46:46;21.42;;;12.73;;
27422;SDS011;14878;50.778;0.258;2022-08-01T03:47:52;22.08;;;12.02;;
27422;SDS011;14878;50.778;0.258;2022-08-01T03:49:06;20.27;;;11.50;;
27422;SDS011;14878;50.778;0.258;2022-08-01T03:50:11;20.17;;;11.10;;
27422;SDS011;14878;50.778;0.258;2022-08-01T03:51:14;19.80;;;11.10;;
27422;SDS011;14878;50.778;0.258;2022-08-01T03:52:17;20.33;;;11.52;;
27422;SDS011;14878;50.778;0.258;2022-08-01T03:53:20;16.00;;;10.98;;
27422;SDS011;14878;50.778;0.258;2022-08-01T03:54:25;16.50;;;9.73;;
27422;SDS011;14878;50.778;0.258;2022-08-01T03:55:31;14.77;;;8.98;;
27422;SDS011;14878;50.778;0.258;2022-08-01T03:56:33;16.48;;;9.98;;
27422;SDS011;14878;50.778;0.258;2022-08-01T03:57:35;16.02;;;8.43;;
27422;SDS011;14878;50.778;0.258;2022-08-01T03:58:36;15.40;;;8.45;;
27422;SDS011;14878;50.778;0.258;2022-08-01T03:59:39;17.13;;;9.47;;
27422;SDS011;14878;50.778;0.258;2022-08-01T04:00:41;15.60;;;7.50;;
27422;SDS011;14878;50.778;0.258;2022-08-01T04:01:44;14.27;;;7.35;;
27422;SDS011;14878;50.778;0.258;2022-08-01T04:02:49;15.55;;;7.57;;
27422;SDS011;14878;50.778;0.258;2022-08-01T04:03:50;13.85;;;7.45;;
27422;SDS011;14878;50.778;0.258;2022-08-01T04:04:51;16.27;;;7.40;;
27422;SDS011;14878;50.778;0.258;2022-08-01T04:05:53;11.23;;;6.68;;
27422;SDS011;14878;50.778;0.258;2022-08-01T04:06:53;15.43;;;7.10;;
27422;SDS011;14878;50.778;0.258;2022-08-01T04:07:54;15.50;;;7.30;;
27422;SDS011;14878;50.778;0.258;2022-08-01T04:08:55;15.80;;;7.47;;
27422;SDS011;14878;50.778;0.258;2022-08-01T04:09:57;15.32;;;6.38;;
27422;SDS011;14878;50.778;0.258;2022-08-01T04:10:58;12.70;;;6.50;;
27422;SDS011;14878;50.778;0.258;2022-08-01T04:11:59;11.82;;;6.03;;
27422;SDS011;14878;50.778;0.258;2022-08-01T04:13:00;12.90;;;6.97;;
27422;SDS011;14878;50.778;0.258;2022-08-01T04:14:01;15.40;;;6.65;;
27422;SDS011;14878;50.778;0.258;2022-08-01T04:15:03;12.38;;;6.20;;
27422;SDS011;14878;50.778;0.258;2022-08-01T04:16:05;11.07;;;5.88;;
27422;SDS011;14878;50.778;0.258;2022-08-01T04:17:06;10.97;;;5.97;;
27422;SDS011;14878;50.778;0.258;2022-08-01T04:18:06;12.20;;;5.80;;
27422;SDS011;14878;50.778;0.258;2022-08-01T04:19:07;13.23;;;5.90;;
27422;SDS011;14878;50.778;0.258;2022-08-01T04:20:08;10.43;;;5.20;;
27422;SDS011;14878;50.778;0.258;2022-08-01T04:21:11;11.93;;;4.95;;
27422;SDS011;14878;50.778;0.258;2022-08-01T04:22:13;9.43;;;5.03;;
27422;SDS011;14878;50.778;0.258;2022-08-01T04:23:16;9.93;;;4.90;;
27422;SDS011;14878;50.778;0.258;2022-08-01T04:24:20;12.60;;;4.77;;
27422;SDS011;14878;50.778;0.258;2022-08-01T04:25:32;8.48;;;4.55;;
27422;SDS011;14878;50.778;0.258;2022-08-01T04:26:34;11.05;;;4.88;;
27422;SDS011;14878;50.778;0.258;2022-08-01T04:27:38;11.43;;;4.10;;
27422;SDS011;14878;50.778;0.258;2022-08-01T04:28:42;9.45;;;3.90;;
27422;SDS011;14878;50.778;0.258;2022-08-01T04:29:44;8.75;;;4.15;;
27422;SDS011;14878;50.778;0.258;2022-08-01T04:30:48;11.95;;;4.10;;
27422;SDS011;14878;50.778;0.258;2022-08-01T04:31:52;11.30;;;3.60;;
27422;SDS011;14878;50.778;0.258;2022-08-01T04:32:55;10.98;;;3.58;;
27422;SDS011;14878;50.778;0.258;2022-08-01T04:34:02;7.88;;;3.58;;
27422;SDS011;14878;50.778;0.258;2022-08-01T04:35:06;11.55;;;3.58;;
27422;SDS011;14878;50.778;0.258;2022-08-01T04:36:09;7.82;;;3.45;;
27422;SDS011;14878;50.778;0.258;2022-08-01T04:37:11;8.88;;;3.90;;
27422;SDS011;14878;50.778;0.258;2022-08-01T04:38:17;8.80;;;3.45;;
27422;SDS011;14878;50.778;0.258;2022-08-01T04:39:23;10.10;;;3.60;;
27422;SDS011;14878;50.778;0.258;2022-08-01T04:40:30;13.30;;;3.75;;
27422;SDS011;14878;50.778;0.258;2022-08-01T04:41:32;8.15;;;3.65;;
27422;SDS011;14878;50.778;0.258;2022-08-01T04:42:34;11.40;;;3.80;;
27422;SDS011;14878;50.778;0.258;2022-08-01T04:43:35;8.35;;;3.70;;
27422;SDS011;14878;50.778;0.258;2022-08-01T04:44:39;8.88;;;3.38;;
27422;SDS011;14878;50.778;0.258;2022-08-01T04:45:40;7.57;;;3.20;;
27422;SDS011;14878;50.778;0.258;2022-08-01T04:46:43;9.88;;;4.20;;
27422;SDS011;14878;50.778;0.258;2022-08-01T04:47:45;8.27;;;3.58;;
27422;SDS011;14878;50.778;0.258;2022-08-01T04:48:47;9.07;;;3.40;;
27422;SDS011;14878;50.778;0.258;2022-08-01T04:49:49;11.35;;;4.00;;
27422;SDS011;14878;50.778;0.258;2022-08-01T04:50:50;11.95;;;4.03;;
27422;SDS011;14878;50.778;0.258;2022-08-01T04:51:52;7.97;;;2.97;;
27422;SDS011;14878;50.778;0.258;2022-08-01T04:52:57;10.60;;;3.42;;
27422;SDS011;14878;50.778;0.258;2022-08-01T04:53:58;6.85;;;3.35;;
27422;SDS011;14878;50.778;0.258;2022-08-01T04:55:01;11.48;;;3.50;;
27422;SDS011;14878;50.778;0.258;2022-08-01T04:56:02;10.40;;;3.38;;
27422;SDS011;14878;50.778;0.258;2022-08-01T04:57:03;8.60;;;3.67;;
27422;SDS011;14878;50.778;0.258;2022-08-01T04:58:05;7.73;;;3.13;;
27422;SDS011;14878;50.778;0.258;2022-08-01T04:59:06;9.88;;;3.20;;
27422;SDS011;14878;50.778;0.258;2022-08-01T05:00:25;10.18;;;2.80;;
27422;SDS011;14878;50.778;0.258;2022-08-01T05:01:28;10.00;;;2.65;;
27422;SDS011;14878;50.778;0.258;2022-08-01T05:02:29;8.32;;;2.70;;
27422;SDS011;14878;50.778;0.258;2022-08-01T05:03:30;7.68;;;2.70;;
27422;SDS011;14878;50.778;0.258;2022-08-01T05:04:31;9.75;;;3.03;;
27422;SDS011;14878;50.778;0.258;2022-08-01T05:05:31;11.90;;;3.15;;
27422;SDS011;14878;50.778;0.258;2022-08-01T05:06:32;7.67;;;2.80;;
27422;SDS011;14878;50.778;0.258;2022-08-01T05:07:33;9.23;;;2.97;;
27422;SDS011;14878;50.778;0.258;2022-08-01T05:08:36;8.95;;;2.92;;
27422;SDS011;14878;50.778;0.258;2022-08-01T05:09:37;9.67;;;3.13;;
27422;SDS011;14878;50.778;0.258;2022-08-01T05:10:41;8.27;;;2.78;;
27422;SDS011;14878;50.778;0.258;2022-08-01T05:11:42;8.38;;;2.55;;
27422;SDS011;14878;50.778;0.258;2022-08-01T05:12:43;6.53;;;2.63;;
27422;SDS011;14878;50.778;0.258;2022-08-01T05:13:44;9.25;;;2.92;;
27422;SDS011;14878;50.778;0.258;2022-08-01T05:14:44;4.95;;;2.50;;
27422;SDS011;14878;50.778;0.258;2022-08-01T05:15:46;7.15;;;2.63;;
27422;SDS011;14878;50.778;0.258;2022-08-01T05:16:46;9.40;;;2.70;;
27422;SDS011;14878;50.778;0.258;2022-08-01T05:17:47;9.37;;;2.90;;
27422;SDS011;14878;50.778;0.258;2022-08-01T05:18:48;6.63;;;2.58;;
27422;SDS011;14878;50.778;0.258;2022-08-01T05:19:49;7.05;;;2.85;;
27422;SDS011;14878;50.778;0.258;2022-08-01T05:20:49;8.17;;;2.60;;
27422;SDS011;14878;50.778;0.258;2022-08-01T05:21:50;6.22;;;2.65;;
27422;SDS011;14878;50.778;0.258;2022-08-01T05:22:52;5.55;;;2.60;;
27422;SDS011;14878;50.778;0.258;2022-08-01T05:23:52;6.57;;;2.13;;
27422;SDS011;14878;50.778;0.258;2022-08-01T05:24:53;8.90;;;2.30;;
27422;SDS011;14878;50.778;0.258;2022-08-01T05:25:54;10.85;;;2.50;;
27422;SDS011;14878;50.778;0.258;2022-08-01T05:26:55;5.40;;;2.37;;
27422;SDS011;14878;50.778;0.258;2022-08-01T05:27:56;6.20;;;2.55;;
27422;SDS011;14878;50.778;0.258;2022-08-01T05:28:57;7.13;;;2.20;;
27422;SDS011;14878;50.778;0.258;2022-08-01T05:29:57;5.55;;;2.38;;
27422;SDS011;14878;50.778;0.258;2022-08-01T05:30:58;10.90;;;2.60;;
27422;SDS011;14878;50.778;0.258;2022-08-01T05:31:59;7.28;;;2.53;;
27422;SDS011;14878;50.778;0.258;2022-08-01T05:33:00;5.32;;;1.92;;
27422;SDS011;14878;50.778;0.258;2022-08-01T05:34:01;8.10;;;2.22;;
27422;SDS011;14878;50.778;0.258;2022-08-01T05:35:02;6.78;;;2.58;;
27422;SDS011;14878;50.778;0.258;2022-08-01T05:36:04;7.88;;;2.45;;
27422;SDS011;14878;50.778;0.258;2022-08-01T05:37:04;5.28;;;2.38;;
27422;SDS011;14878;50.778;0.258;2022-08-01T05:38:05;4.90;;;2.28;;
27422;SDS011;14878;50.778;0.258;2022-08-01T05:39:06;7.38;;;2.40;;
27422;SDS011;14878;50.778;0.258;2022-08-01T05:40:07;6.77;;;2.30;;
27422;SDS011;14878;50.778;0.258;2022-08-01T05:41:08;5.55;;;2.17;;
27422;SDS011;14878;50.778;0.258;2022-08-01T05:42:10;6.65;;;2.47;;
27422;SDS011;14878;50.778;0.258;2022-08-01T05:43:11;4.93;;;2.30;;
27422;SDS011;14878;50.778;0.258;2022-08-01T05:44:12;6.43;;;2.25;;
27422;SDS011;14878;50.778;0.258;2022-08-01T05:45:12;6.00;;;2.40;;
27422;SDS011;14878;50.778;0.258;2022-08-01T05:46:13;7.20;;;2.43;;
27422;SDS011;14878;50.778;0.258;2022-08-01T05:47:14;5.80;;;2.22;;
27422;SDS011;14878;50.778;0.258;2022-08-01T05:48:15;3.67;;;2.30;;
27422;SDS011;14878;50.778;0.258;2022-08-01T05:49:16;4.60;;;2.30;;
27422;SDS011;14878;50.778;0.258;2022-08-01T05:50:16;6.75;;;2.22;;
27422;SDS011;14878;50.778;0.258;2022-08-01T05:51:17;7.63;;;2.65;;
27422;SDS011;14878;50.778;0.258;2022-08-01T05:52:18;6.38;;;2.58;;
27422;SDS011;14878;50.778;0.258;2022-08-01T05:53:19;4.70;;;2.30;;
27422;SDS011;14878;50.778;0.258;2022-08-01T05:54:20;8.50;;;3.00;;
27422;SDS011;14878;50.778;0.258;2022-08-01T05:55:20;7.50;;;2.40;;
27422;SDS011;14878;50.778;0.258;2022-08-01T05:56:21;6.70;;;2.40;;
27422;SDS011;14878;50.778;0.258;2022-08-01T05:57:22;4.05;;;2.70;;
27422;SDS011;14878;50.778;0.258;2022-08-01T05:58:23;6.23;;;2.40;;
27422;SDS011;14878;50.778;0.258;2022-08-01T05:59:24;4.60;;;2.25;;
27422;SDS011;14878;50.778;0.258;2022-08-01T06:00:25;8.05;;;2.28;;
27422;SDS011;14878;50.778;0.258;2022-08-01T06:01:26;6.13;;;2.50;;
27422;SDS011;14878;50.778;0.258;2022-08-01T06:02:27;4.38;;;2.20;;
27422;SDS011;14878;50.778;0.258;2022-08-01T06:03:28;6.60;;;2.20;;
27422;SDS011;14878;50.778;0.258;2022-08-01T06:04:31;4.75;;;2.45;;
27422;SDS011;14878;50.778;0.258;2022-08-01T06:05:32;5.57;;;2.20;;
27422;SDS011;14878;50.778;0.258;2022-08-01T06:06:32;4.32;;;2.10;;
27422;SDS011;14878;50.778;0.258;2022-08-01T06:07:33;6.72;;;2.47;;
27422;SDS011;14878;50.778;0.258;2022-08-01T06:08:34;10.33;;;2.50;;
27422;SDS011;14878;50.778;0.258;2022-08-01T06:09:35;5.60;;;2.40;;
27422;SDS011;14878;50.778;0.258;2022-08-01T06:10:35;6.33;;;2.23;;
27422;SDS011;14878;50.778;0.258;2022-08-01T06:11:36;5.88;;;2.47;;
27422;SDS011;14878;50.778;0.258;2022-08-01T06:12:37;5.53;;;2.53;;
27422;SDS011;14878;50.778;0.258;2022-08-01T06:13:38;6.22;;;2.33;;
27422;SDS011;14878;50.778;0.258;2022-08-01T06:14:39;4.70;;;2.42;;
27422;SDS011;14878;50.778;0.258;2022-08-01T06:15:40;5.23;;;2.20;;
27422;SDS011;14878;50.778;0.258;2022-08-01T06:16:40;5.20;;;2.42;;
27422;SDS011;14878;50.778;0.258;2022-08-01T06:17:41;8.13;;;2.90;;
27422;SDS011;14878;50.778;0.258;2022-08-01T06:18:42;4.57;;;2.27;;
27422;SDS011;14878;50.778;0.258;2022-08-01T06:19:43;4.10;;;2.33;;
27422;SDS011;14878;50.778;0.258;2022-08-01T06:20:43;4.55;;;2.15;;
27422;SDS011;14878;50.778;0.258;2022-08-01T06:21:47;5.90;;;2.47;;
27422;SDS011;14878;50.778;0.258;2022-08-01T06:22:50;8.63;;;2.55;;
27422;SDS011;14878;50.778;0.258;2022-08-01T06:23:54;7.47;;;2.20;;
27422;SDS011;14878;50.778;0.258;2022-08-01T06:24:55;6.93;;;2.45;;
27422;SDS011;14878;50.778;0.258;2022-08-01T06:25:56;4.55;;;2.50;;
27422;SDS011;14878;50.778;0.258;2022-08-01T06:26:58;6.10;;;2.28;;
27422;SDS011;14878;50.778;0.258;2022-08-01T06:27:59;6.40;;;2.20;;